createdAt,value
2022-09-03T00:00:37.914Z,33.61
2022-09-03T00:03:23.190Z,33.46
2022-09-03T00:06:18.600Z,33.43
2022-09-03T00:09:18.721Z,33.78
2022-09-03T00:12:11.272Z,33.57
2022-09-03T00:14:47.847Z,33.95
2022-09-03T00:17:21.436Z,33.96
2022-09-03T00:20:12.958Z,33.94
2022-09-03T00:22:47.375Z,34.08
2022-09-03T00:25:43.704Z,33.91
2022-09-03T00:28:25.292Z,33.91
2022-09-03T00:31:15.158Z,34.17
2022-09-03T00:33:48.264Z,34.33
2022-09-03T00:36:45.032Z,34.24
2022-09-03T00:39:21.104Z,34.08
2022-09-03T00:42:28.965Z,34.08
2022-09-03T00:45:21.821Z,34.44
2022-09-03T00:48:09.245Z,34.47
2022-09-03T00:51:01.175Z,34.53
2022-09-03T00:53:51.478Z,34.70
2022-09-03T00:56:55.575Z,34.38
2022-09-03T00:59:41.482Z,34.65
2022-09-03T01:02:34.361Z,34.29
2022-09-03T01:05:34.846Z,34.37
2022-09-03T01:08:33.686Z,34.43
2022-09-03T01:11:52.985Z,34.64
2022-09-03T01:15:01.143Z,34.58
2022-09-03T01:17:54.593Z,34.47
2022-09-03T01:21:26.988Z,34.62
2022-09-03T01:24:23.284Z,34.81
2022-09-03T01:27:25.167Z,34.89
2022-09-03T01:30:09.544Z,34.71
2022-09-03T01:33:15.363Z,35.04
2022-09-03T01:36:12.841Z,35.05
2022-09-03T01:38:57.070Z,34.76
2022-09-03T01:42:31.504Z,34.98
2022-09-03T01:45:17.997Z,35.33
2022-09-03T01:48:13.827Z,34.99
2022-09-03T01:50:47.415Z,35.13
2022-09-03T01:54:21.336Z,35.34
2022-09-03T01:57:19.161Z,35.28
2022-09-03T02:00:14.815Z,35.71
2022-09-03T02:02:49.477Z,35.76
2022-09-03T02:05:29.318Z,35.67
2022-09-03T02:08:01.799Z,35.66
2022-09-03T02:10:39.658Z,35.55
2022-09-03T02:13:31.598Z,35.80
2022-09-03T02:16:33.452Z,35.61
2022-09-03T02:19:07.669Z,35.82
2022-09-03T02:21:40.754Z,35.94
2022-09-03T02:24:09.847Z,35.67
2022-09-03T02:26:38.019Z,36.08
2022-09-03T02:29:06.603Z,35.77
2022-09-03T02:31:34.778Z,35.71
2022-09-03T02:34:03.663Z,36.09
2022-09-03T02:36:39.413Z,35.93
2022-09-03T02:39:07.997Z,35.57
2022-09-03T02:41:36.290Z,35.87
2022-09-03T02:44:16.938Z,35.71
2022-09-03T02:46:49.931Z,35.63
2022-09-03T02:49:18.201Z,35.69
2022-09-03T02:51:46.680Z,35.74
2022-09-03T02:54:18.923Z,35.91
2022-09-03T02:56:50.199Z,35.76
2022-09-03T02:59:20.106Z,35.88
2022-09-03T03:01:48.800Z,35.71
2022-09-03T03:04:17.074Z,35.82
2022-09-03T03:06:47.780Z,35.65
2022-09-03T03:09:16.897Z,35.97
2022-09-03T03:11:45.370Z,35.92
2022-09-03T03:14:13.659Z,35.54
2022-09-03T03:16:42.196Z,35.85
2022-09-03T03:19:11.117Z,35.51
2022-09-03T03:21:40.212Z,35.75
2022-09-03T03:24:09.210Z,35.44
2022-09-03T03:26:37.585Z,35.50
2022-09-03T03:29:05.857Z,35.38
2022-09-03T03:31:35.153Z,35.54
2022-09-03T03:34:04.452Z,35.54
2022-09-03T03:36:34.575Z,35.66
2022-09-03T03:39:04.488Z,35.45
2022-09-03T03:41:37.995Z,35.90
2022-09-03T03:44:08.406Z,36.03
2022-09-03T03:46:39.855Z,35.58
2022-09-03T03:49:09.052Z,35.75
2022-09-03T03:51:39.274Z,35.57
2022-09-03T03:54:08.475Z,35.98
2022-09-03T03:56:36.648Z,36.03
2022-09-03T03:59:05.550Z,35.96
2022-09-03T04:01:34.023Z,35.97
2022-09-03T04:04:02.906Z,35.67
2022-09-03T04:06:31.381Z,35.67
2022-09-03T04:08:59.867Z,35.98
2022-09-03T04:11:28.449Z,35.72
2022-09-03T04:13:56.721Z,35.95
2022-09-03T04:16:28.631Z,36.04
2022-09-03T04:18:57.981Z,36.09
2022-09-03T04:21:29.632Z,35.96
2022-09-03T04:23:59.346Z,36.05
2022-09-03T04:26:31.638Z,36.19
2022-09-03T04:29:03.372Z,36.33
2022-09-03T04:31:34.211Z,36.57
2022-09-03T04:34:02.580Z,36.36
2022-09-03T04:36:31.266Z,36.33
2022-09-03T04:39:04.863Z,36.63
2022-09-03T04:41:33.147Z,36.80
2022-09-03T04:44:01.623Z,36.52
2022-09-03T04:46:34.148Z,36.67
2022-09-03T04:49:02.986Z,36.62
2022-09-03T04:51:31.926Z,36.73
2022-09-03T04:54:02.512Z,36.95
2022-09-03T04:56:34.471Z,36.86
2022-09-03T04:59:09.086Z,36.91
2022-09-03T05:01:40.023Z,37.35
2022-09-03T05:04:09.015Z,37.41
2022-09-03T05:06:37.803Z,37.25
2022-09-03T05:09:06.796Z,37.55
2022-09-03T05:11:34.968Z,37.36
2022-09-03T05:14:06.117Z,37.71
2022-09-03T05:16:34.780Z,37.83
2022-09-03T05:19:04.097Z,37.75
2022-09-03T05:21:32.574Z,37.88
2022-09-03T05:24:03.105Z,37.64
2022-09-03T05:26:39.676Z,37.87
2022-09-03T05:29:09.591Z,37.97
2022-09-03T05:31:39.577Z,37.77
2022-09-03T05:34:10.209Z,38.13
2022-09-03T05:36:49.261Z,37.92
2022-09-03T05:39:17.691Z,38.05
2022-09-03T05:41:45.913Z,38.23
2022-09-03T05:44:14.798Z,37.91
2022-09-03T05:46:42.869Z,38.16
2022-09-03T05:49:12.102Z,37.95
2022-09-03T05:51:41.163Z,38.37
2022-09-03T05:54:10.622Z,38.56
2022-09-03T05:56:42.673Z,38.33
2022-09-03T05:59:11.927Z,38.32
2022-09-03T06:01:44.005Z,38.41
2022-09-03T06:04:20.870Z,38.61
2022-09-03T06:06:50.079Z,38.40
2022-09-03T06:09:23.321Z,38.59
2022-09-03T06:11:53.985Z,38.34
2022-09-03T06:14:22.362Z,38.45
2022-09-03T06:16:53.375Z,38.33
2022-09-03T06:19:23.126Z,38.48
2022-09-03T06:21:51.794Z,38.35
2022-09-03T06:24:26.206Z,38.58
2022-09-03T06:27:16.306Z,38.65
2022-09-03T06:29:51.037Z,39.29
2022-09-03T06:32:20.221Z,39.16
2022-09-03T06:34:48.702Z,39.42
2022-09-03T06:37:16.883Z,39.29
2022-09-03T06:39:45.310Z,39.52
2022-09-03T06:42:14.449Z,39.29
2022-09-03T06:44:45.496Z,39.01
2022-09-03T06:47:13.871Z,39.39
2022-09-03T06:49:42.962Z,39.04
2022-09-03T06:52:11.544Z,39.19
2022-09-03T06:54:41.163Z,39.01
2022-09-03T06:57:09.731Z,39.04
2022-09-03T06:59:38.215Z,39.53
2022-09-03T07:02:08.630Z,39.94
2022-09-03T07:04:37.114Z,40.63
2022-09-03T07:07:05.398Z,40.86
2022-09-03T07:09:36.430Z,41.52
2022-09-03T07:12:05.421Z,41.58
2022-09-03T07:14:34.619Z,41.96
2022-09-03T07:17:03.098Z,42.46
2022-09-03T07:19:31.679Z,42.57
2022-09-03T07:22:00.364Z,43.01
2022-09-03T07:24:29.768Z,43.67
2022-09-03T07:26:58.860Z,44.24
2022-09-03T07:29:28.095Z,44.62
2022-09-03T07:31:57.202Z,44.93
2022-09-03T07:34:29.535Z,46.71
2022-09-03T07:37:05.694Z,47.93
2022-09-03T07:39:34.691Z,49.40
2022-09-03T07:42:03.050Z,50.62
2022-09-03T07:44:31.426Z,51.95
2022-09-03T07:47:00.893Z,52.70
2022-09-03T07:49:29.516Z,53.24
2022-09-03T07:51:57.990Z,54.13
2022-09-03T07:54:27.513Z,54.46
2022-09-03T07:56:56.390Z,54.99
2022-09-03T07:59:26.092Z,55.07
2022-09-03T08:01:57.336Z,55.24
2022-09-03T08:04:25.716Z,55.33
2022-09-03T08:06:55.921Z,55.28
2022-09-03T08:09:24.208Z,55.39
2022-09-03T08:11:52.693Z,55.48
2022-09-03T08:14:22.195Z,55.77
2022-09-03T08:16:50.982Z,55.91
2022-09-03T08:19:22.634Z,55.62
2022-09-03T08:21:51.116Z,55.71
2022-09-03T08:24:21.970Z,55.80
2022-09-03T08:26:52.384Z,55.51
2022-09-03T08:29:22.200Z,55.37
2022-09-03T08:31:51.763Z,55.56
2022-09-03T08:34:20.692Z,55.73
2022-09-03T08:36:49.059Z,55.76
2022-09-03T08:39:17.205Z,55.69
2022-09-03T08:41:51.966Z,55.67
2022-09-03T08:44:45.537Z,55.63
2022-09-03T08:47:42.389Z,55.96
2022-09-03T08:50:12.600Z,56.21
2022-09-03T08:53:00.756Z,56.00
2022-09-03T08:55:47.033Z,55.81
2022-09-03T08:58:21.145Z,56.07
2022-09-03T09:01:22.536Z,56.00
2022-09-03T09:04:22.515Z,55.80
2022-09-03T09:07:19.665Z,55.85
2022-09-03T09:10:42.108Z,55.42
2022-09-03T09:14:01.401Z,55.21
2022-09-03T09:17:09.598Z,55.10
2022-09-03T09:20:19.027Z,55.03
2022-09-03T09:22:59.386Z,55.10
2022-09-03T09:25:30.325Z,55.40
2022-09-03T09:28:13.452Z,54.69
2022-09-03T09:30:43.052Z,54.96
2022-09-03T09:33:12.658Z,54.90
2022-09-03T09:35:43.084Z,54.97
2022-09-03T09:38:13.101Z,54.79
2022-09-03T09:40:45.885Z,54.92
2022-09-03T09:43:21.231Z,54.88
2022-09-03T09:45:52.672Z,54.99
2022-09-03T09:48:36.925Z,54.65
2022-09-03T09:51:14.104Z,54.75
2022-09-03T09:53:45.043Z,54.86
2022-09-03T09:56:26.018Z,54.73
2022-09-03T09:59:11.081Z,55.10
2022-09-03T10:01:42.988Z,55.67
2022-09-03T10:04:14.600Z,55.53
2022-09-03T10:07:00.183Z,55.84
2022-09-03T10:09:31.926Z,56.22
2022-09-03T10:12:24.682Z,56.18
2022-09-03T10:15:24.702Z,55.71
2022-09-03T10:18:11.410Z,55.57
2022-09-03T10:21:02.006Z,55.29
2022-09-03T10:23:39.703Z,55.33
2022-09-03T10:26:17.300Z,54.97
2022-09-03T10:28:56.775Z,55.08
2022-09-03T10:32:07.809Z,54.73
2022-09-03T10:35:00.458Z,54.74
2022-09-03T10:37:47.570Z,54.21
2022-09-03T10:40:40.332Z,54.21
2022-09-03T10:43:42.210Z,53.84
2022-09-03T10:46:18.470Z,54.29
2022-09-03T10:49:32.593Z,53.99
2022-09-03T10:52:12.767Z,54.16
2022-09-03T10:55:05.904Z,53.65
2022-09-03T10:58:28.580Z,53.85
2022-09-03T11:01:44.917Z,53.69
2022-09-03T11:04:55.115Z,53.43
2022-09-03T11:07:38.033Z,53.65
2022-09-03T11:10:39.997Z,53.34
2022-09-03T11:13:54.145Z,53.16
2022-09-03T11:16:29.895Z,53.06
2022-09-03T11:19:08.003Z,52.69
2022-09-03T11:21:42.009Z,52.47
2022-09-03T11:24:23.187Z,52.88
2022-09-03T11:27:00.906Z,52.87
2022-09-03T11:29:54.045Z,52.24
2022-09-03T11:32:55.475Z,52.06
2022-09-03T11:35:42.828Z,51.98
2022-09-03T11:38:18.259Z,51.75
2022-09-03T11:41:15.820Z,51.59
2022-09-03T11:43:45.324Z,51.61
2022-09-03T11:46:23.716Z,51.05
2022-09-03T11:49:04.608Z,51.27
2022-09-03T11:51:39.742Z,51.41
2022-09-03T11:54:13.752Z,51.38
2022-09-03T11:56:43.561Z,51.06
2022-09-03T11:59:24.842Z,50.91
2022-09-03T12:02:31.981Z,50.51
2022-09-03T12:05:26.110Z,50.22
2022-09-03T12:08:22.032Z,50.31
2022-09-03T12:10:55.032Z,50.12
2022-09-03T12:13:37.012Z,49.71
2022-09-03T12:16:20.267Z,49.92
2022-09-03T12:18:53.160Z,49.87
2022-09-03T12:21:21.729Z,49.63
2022-09-03T12:23:58.161Z,49.46
2022-09-03T12:26:28.310Z,49.41
2022-09-03T12:29:29.027Z,49.50
2022-09-03T12:32:19.930Z,50.14
2022-09-03T12:34:53.224Z,50.16
2022-09-03T12:40:28.447Z,50.01
2022-09-03T12:46:10.125Z,49.93
2022-09-03T12:48:43.634Z,49.71
2022-09-03T12:54:03.206Z,49.33
2022-09-03T12:56:33.910Z,49.16
2022-09-03T12:59:14.679Z,48.95
2022-09-03T13:01:51.851Z,48.91
2022-09-03T13:04:32.731Z,48.89
2022-09-03T13:07:14.111Z,48.74
2022-09-03T13:09:43.306Z,48.53
2022-09-03T13:12:43.735Z,48.20
2022-09-03T13:15:22.559Z,47.99
2022-09-03T13:18:05.474Z,47.59
2022-09-03T13:20:55.259Z,47.37
2022-09-03T13:23:41.960Z,46.69
2022-09-03T13:26:41.569Z,46.93
2022-09-03T13:29:45.993Z,46.95
2022-09-03T13:33:01.087Z,46.90
2022-09-03T13:36:05.386Z,46.99
2022-09-03T13:38:44.413Z,46.79
2022-09-03T13:41:46.892Z,46.59
2022-09-03T13:44:58.605Z,45.99
2022-09-03T13:48:09.876Z,46.20
2022-09-03T13:50:59.115Z,45.96
2022-09-03T13:54:05.206Z,46.12
2022-09-03T13:57:20.978Z,46.46
2022-09-03T13:59:58.193Z,46.31
2022-09-03T14:03:16.262Z,46.05
2022-09-03T14:06:27.178Z,46.45
2022-09-03T14:09:07.870Z,46.21
2022-09-03T14:11:55.370Z,46.44
2022-09-03T14:14:49.861Z,46.86
2022-09-03T14:17:47.422Z,47.13
2022-09-03T14:20:26.140Z,47.26
2022-09-03T14:23:07.216Z,47.64
2022-09-03T14:25:36.517Z,48.18
2022-09-03T14:28:37.369Z,48.08
2022-09-03T14:31:56.677Z,48.44
2022-09-03T14:34:52.454Z,48.56
2022-09-03T14:38:17.559Z,49.24
2022-09-03T14:41:12.858Z,49.17
2022-09-03T14:43:52.605Z,49.52
2022-09-03T14:46:45.560Z,49.49
2022-09-03T14:50:01.550Z,50.20
2022-09-03T14:52:54.915Z,50.38
2022-09-03T14:55:28.511Z,50.44
2022-09-03T14:58:38.670Z,50.45
2022-09-03T15:01:38.540Z,50.81
2022-09-03T15:04:33.933Z,51.15
2022-09-03T15:08:01.220Z,51.18
2022-09-03T15:10:37.772Z,51.43
2022-09-03T15:13:26.293Z,51.56
2022-09-03T15:16:54.082Z,51.70
2022-09-03T15:19:54.341Z,51.69
2022-09-03T15:22:49.907Z,51.80
2022-09-03T15:25:49.936Z,52.01
2022-09-03T15:28:34.443Z,52.23
2022-09-03T15:31:47.184Z,52.25
2022-09-03T15:34:32.867Z,52.33
2022-09-03T15:37:07.248Z,52.45
2022-09-03T15:39:41.627Z,52.45
2022-09-03T15:42:23.792Z,52.49
2022-09-03T15:45:18.085Z,52.54
2022-09-03T15:47:52.017Z,52.63
2022-09-03T15:50:33.167Z,52.43
2022-09-03T15:53:34.105Z,52.59
2022-09-03T15:56:29.326Z,52.40
2022-09-03T15:59:15.830Z,52.45
2022-09-03T16:02:24.831Z,52.39
2022-09-03T16:04:57.335Z,52.37
2022-09-03T16:07:40.159Z,51.78
2022-09-03T16:10:26.835Z,51.18
2022-09-03T16:13:25.491Z,50.96
2022-09-03T16:16:03.976Z,50.81
2022-09-03T16:18:52.573Z,50.12
2022-09-03T16:22:15.743Z,49.87
2022-09-03T16:25:13.903Z,49.71
2022-09-03T16:28:17.346Z,49.56
2022-09-03T16:31:15.238Z,49.33
2022-09-03T16:34:33.655Z,49.27
2022-09-03T16:37:53.302Z,49.09
2022-09-03T16:40:53.805Z,49.00
2022-09-03T16:43:40.661Z,48.87
2022-09-03T16:46:36.071Z,48.91
2022-09-03T16:49:22.042Z,48.74
2022-09-03T16:52:38.862Z,48.67
2022-09-03T16:55:25.424Z,48.52
2022-09-03T16:58:27.272Z,48.14
2022-09-03T17:01:07.634Z,48.12
2022-09-03T17:04:04.354Z,47.92
2022-09-03T17:06:57.262Z,47.82
2022-09-03T17:10:26.708Z,47.90
2022-09-03T17:13:17.857Z,47.70
2022-09-03T17:15:53.379Z,47.60
2022-09-03T17:18:50.708Z,47.49
2022-09-03T17:22:04.479Z,47.64
2022-09-03T17:25:05.957Z,47.75
2022-09-03T17:28:15.449Z,47.73
2022-09-03T17:31:16.666Z,47.88
2022-09-03T17:34:39.639Z,47.92
2022-09-03T17:37:52.328Z,48.19
2022-09-03T17:40:27.102Z,48.70
2022-09-03T17:43:15.813Z,48.53
2022-09-03T17:46:09.347Z,48.54
2022-09-03T17:48:53.217Z,48.66
2022-09-03T17:51:58.612Z,48.82
2022-09-03T17:54:52.033Z,48.93
2022-09-03T17:57:31.468Z,49.00
2022-09-03T18:00:08.759Z,49.14
2022-09-03T18:03:05.352Z,49.37
2022-09-03T18:06:37.199Z,49.50
2022-09-03T18:09:17.835Z,49.79
2022-09-03T18:11:55.086Z,50.00
2022-09-03T18:14:48.271Z,50.00
2022-09-03T18:17:37.863Z,49.81
2022-09-03T18:20:33.054Z,50.14
2022-09-03T18:23:49.270Z,50.15
2022-09-03T18:26:48.039Z,50.49
2022-09-03T18:29:54.212Z,50.66
2022-09-03T18:32:41.766Z,51.03
2022-09-03T18:35:30.443Z,51.02
2022-09-03T18:38:17.603Z,51.63
2022-09-03T18:41:32.396Z,51.43
2022-09-03T18:45:18.556Z,51.59
2022-09-03T18:48:49.408Z,52.00
2022-09-03T18:51:48.439Z,52.26
2022-09-03T18:54:57.213Z,52.20
2022-09-03T18:58:01.553Z,52.60
2022-09-03T19:00:54.280Z,52.55
2022-09-03T19:04:20.481Z,52.16
2022-09-03T19:07:38.424Z,52.32
2022-09-03T19:10:41.205Z,52.40
2022-09-03T19:13:46.486Z,52.87
2022-09-03T19:16:55.936Z,53.08
2022-09-03T19:20:28.828Z,52.85
2022-09-03T19:23:15.689Z,53.34
2022-09-03T19:26:02.986Z,53.64
2022-09-03T19:28:51.190Z,53.75
2022-09-03T19:32:00.416Z,53.64
2022-09-03T19:35:31.370Z,53.90
2022-09-03T19:38:58.763Z,54.06
2022-09-03T19:42:06.400Z,53.91
2022-09-03T19:45:44.955Z,54.03
2022-09-03T19:49:00.740Z,54.13
2022-09-03T19:52:26.020Z,54.09
2022-09-03T19:55:16.311Z,54.46
2022-09-03T19:58:26.127Z,54.46
2022-09-03T20:01:18.529Z,54.87
2022-09-03T20:04:05.393Z,54.85
2022-09-03T20:06:55.001Z,55.03
2022-09-03T20:09:48.041Z,54.72
2022-09-03T20:12:20.326Z,54.96
2022-09-03T20:14:48.412Z,55.14
2022-09-03T20:17:40.644Z,54.82
2022-09-03T20:20:41.988Z,55.02
2022-09-03T20:23:24.255Z,55.18
2022-09-03T20:26:27.102Z,54.84
2022-09-03T20:29:44.720Z,54.82
2022-09-03T20:32:38.536Z,54.78
2022-09-03T20:35:36.736Z,54.95
2022-09-03T20:38:55.127Z,54.71
2022-09-03T20:42:18.717Z,55.01
2022-09-03T20:44:57.349Z,55.20
2022-09-03T20:48:03.612Z,54.94
2022-09-03T20:50:56.517Z,55.13
2022-09-03T20:53:49.182Z,55.10
2022-09-03T20:57:05.718Z,55.23
2022-09-03T20:59:56.147Z,55.27
2022-09-03T21:02:51.773Z,55.31
2022-09-03T21:05:45.258Z,55.50
2022-09-03T21:08:36.697Z,55.39
2022-09-03T21:11:29.752Z,55.67
2022-09-03T21:14:50.697Z,55.46
2022-09-03T21:17:52.308Z,55.78
2022-09-03T21:20:45.467Z,55.87
2022-09-03T21:23:36.742Z,55.90
2022-09-03T21:26:28.392Z,55.66
2022-09-03T21:29:21.436Z,56.09
2022-09-03T21:32:05.854Z,55.91
2022-09-03T21:34:54.968Z,55.87
2022-09-03T21:37:23.891Z,56.05
2022-09-03T21:39:56.959Z,56.29
2022-09-03T21:42:46.348Z,56.14
2022-09-03T21:45:43.572Z,56.17
2022-09-03T21:48:26.623Z,56.01
2022-09-03T21:51:00.851Z,56.33
2022-09-03T21:53:48.141Z,56.13
2022-09-03T21:56:27.731Z,56.13
2022-09-03T21:59:23.768Z,56.22
2022-09-03T22:02:21.629Z,56.10
2022-09-03T22:04:51.014Z,56.48
2022-09-03T22:07:59.424Z,56.26
2022-09-03T22:11:06.936Z,56.37
2022-09-03T22:14:09.950Z,56.50
2022-09-03T22:17:10.902Z,56.36
2022-09-03T22:19:40.410Z,56.65
2022-09-03T22:22:44.362Z,56.24
2022-09-03T22:25:33.169Z,56.52
2022-09-03T22:28:42.339Z,56.34
2022-09-03T22:31:35.795Z,56.35
2022-09-03T22:34:38.814Z,56.39
2022-09-03T22:37:28.571Z,56.56
2022-09-03T22:40:28.462Z,56.69
2022-09-03T22:43:02.011Z,56.67
2022-09-03T22:45:59.119Z,56.56
2022-09-03T22:49:29.838Z,56.62
2022-09-03T22:52:19.938Z,56.75
2022-09-03T22:55:21.347Z,56.60
2022-09-03T22:58:08.815Z,56.76
2022-09-03T23:00:54.694Z,56.56
2022-09-03T23:04:19.903Z,56.71
2022-09-03T23:07:18.825Z,56.91
2022-09-03T23:10:23.088Z,56.97
2022-09-03T23:13:16.204Z,56.77
2022-09-03T23:16:01.228Z,56.83
2022-09-03T23:18:32.819Z,57.02
2022-09-03T23:21:16.348Z,56.83
2022-09-03T23:23:59.845Z,56.92
2022-09-03T23:26:44.455Z,56.91
2022-09-03T23:29:44.900Z,56.85
2022-09-03T23:32:12.869Z,57.16
2022-09-03T23:34:42.230Z,57.32
2022-09-03T23:37:39.409Z,56.99
2022-09-03T23:40:33.191Z,56.86
2022-09-03T23:43:17.301Z,57.21
2022-09-03T23:46:10.025Z,56.90
2022-09-03T23:49:16.054Z,56.99
2022-09-03T23:52:11.535Z,56.97
2022-09-03T23:55:09.181Z,57.09
2022-09-03T23:58:08.219Z,57.28
